createdAt,value
2016-11-23T00:00:20.073Z,0
2016-11-23T00:01:19.014Z,0
2016-11-23T00:02:18.849Z,0
2016-11-23T00:03:19.267Z,0
2016-11-23T00:04:18.960Z,0
2016-11-23T00:05:20.142Z,0
2016-11-23T00:06:18.602Z,0
2016-11-23T00:07:19.595Z,0
2016-11-23T00:08:20.448Z,0
2016-11-23T00:09:20.007Z,0
2016-11-23T00:10:20.176Z,0
2016-11-23T00:11:20.344Z,0
2016-11-23T00:12:19.172Z,0
2016-11-23T00:13:19.936Z,0
2016-11-23T00:14:20.131Z,0
2016-11-23T00:15:19.093Z,0
2016-11-23T00:16:18.921Z,0
2016-11-23T00:17:18.882Z,0
2016-11-23T00:18:20.821Z,0
2016-11-23T00:19:18.760Z,0
2016-11-23T00:20:19.588Z,0
2016-11-23T00:21:20.999Z,0
2016-11-23T00:22:20.147Z,0
2016-11-23T00:23:19.536Z,0
2016-11-23T00:24:20.110Z,0
2016-11-23T00:25:19.224Z,0
2016-11-23T00:26:19.674Z,0
2016-11-23T00:27:20.084Z,0
2016-11-23T00:28:20.441Z,0
2016-11-23T00:29:19.890Z,0
2016-11-23T00:30:20.103Z,0
2016-11-23T00:31:19.780Z,0
2016-11-23T00:32:19.282Z,0
2016-11-23T00:33:20.023Z,0
2016-11-23T00:34:19.839Z,0
2016-11-23T00:35:19.961Z,0
2016-11-23T00:36:19.857Z,0
2016-11-23T00:37:21.730Z,0
2016-11-23T00:38:19.942Z,0
2016-11-23T00:39:20.133Z,0
2016-11-23T00:40:20.215Z,0
2016-11-23T00:41:20.317Z,0
2016-11-23T00:42:20.047Z,0
2016-11-23T00:43:19.967Z,0
2016-11-23T00:44:20.430Z,0
2016-11-23T00:45:20.151Z,0
2016-11-23T00:46:20.010Z,0
2016-11-23T00:47:19.822Z,0
2016-11-23T00:48:20.934Z,0
2016-11-23T00:49:20.422Z,0
2016-11-23T00:50:20.103Z,0
2016-11-23T00:51:20.850Z,0
2016-11-23T00:52:20.099Z,0
2016-11-23T00:53:20.298Z,0
2016-11-23T00:54:20.892Z,0
2016-11-23T00:55:21.070Z,0
2016-11-23T00:56:19.954Z,0
2016-11-23T00:57:20.256Z,0
2016-11-23T00:58:21.198Z,0
2016-11-23T00:59:20.428Z,0
2016-11-23T01:00:21.113Z,0
2016-11-23T01:01:20.133Z,0
2016-11-23T01:02:20.303Z,0
2016-11-23T01:03:20.616Z,0
2016-11-23T01:04:21.331Z,0
2016-11-23T01:05:20.394Z,0
2016-11-23T01:06:20.384Z,0
2016-11-23T01:07:20.493Z,0
2016-11-23T01:08:19.917Z,0
2016-11-23T01:09:20.594Z,0
2016-11-23T01:10:20.112Z,0
2016-11-23T01:11:20.950Z,0
2016-11-23T01:12:20.973Z,0
2016-11-23T01:13:21.051Z,0
2016-11-23T01:14:20.058Z,0
2016-11-23T01:15:20.816Z,0
2016-11-23T01:16:20.642Z,0
2016-11-23T01:17:20.917Z,0
2016-11-23T01:18:21.113Z,0
2016-11-23T01:19:21.095Z,0
2016-11-23T01:20:21.113Z,0
2016-11-23T01:21:20.167Z,0
2016-11-23T01:22:20.354Z,0
2016-11-23T01:23:21.215Z,0
2016-11-23T01:24:20.739Z,0
2016-11-23T01:25:20.432Z,0
2016-11-23T01:26:21.215Z,0
2016-11-23T01:27:21.490Z,0
2016-11-23T01:28:20.749Z,0
2016-11-23T01:29:21.882Z,0
2016-11-23T01:30:21.358Z,0
2016-11-23T01:31:21.191Z,0
2016-11-23T01:32:21.113Z,0
2016-11-23T01:33:20.212Z,0
2016-11-23T01:34:21.104Z,0
2016-11-23T01:35:21.339Z,0
2016-11-23T01:36:21.323Z,0
2016-11-23T01:37:21.228Z,0
2016-11-23T01:38:20.608Z,0
2016-11-23T01:39:20.665Z,0
2016-11-23T01:40:21.906Z,0
2016-11-23T01:41:20.419Z,0
2016-11-23T01:42:21.244Z,0
2016-11-23T01:43:21.042Z,0
2016-11-23T01:44:20.907Z,0
2016-11-23T01:45:20.790Z,0
2016-11-23T01:46:21.616Z,0
2016-11-23T01:47:21.103Z,0
2016-11-23T01:48:21.138Z,0
2016-11-23T01:49:21.451Z,0
2016-11-23T01:50:21.363Z,0
2016-11-23T01:51:21.500Z,0
2016-11-23T01:52:22.712Z,0
2016-11-23T01:53:20.503Z,0
2016-11-23T01:54:20.625Z,0
2016-11-23T01:55:21.508Z,0
2016-11-23T01:56:22.845Z,0
2016-11-23T01:57:20.578Z,0
2016-11-23T01:58:21.495Z,0
2016-11-23T01:59:20.960Z,0
2016-11-23T02:00:20.732Z,0
2016-11-23T02:01:21.444Z,0
2016-11-23T02:02:21.835Z,0
2016-11-23T02:03:22.422Z,0
2016-11-23T02:04:21.740Z,0
2016-11-23T02:05:21.342Z,0
2016-11-23T02:06:21.468Z,0
2016-11-23T02:07:21.385Z,0
2016-11-23T02:08:21.656Z,0
2016-11-23T02:09:21.678Z,0
2016-11-23T02:10:21.651Z,0
2016-11-23T02:11:20.548Z,0
2016-11-23T02:12:20.403Z,0
2016-11-23T02:13:21.358Z,0
2016-11-23T02:14:22.310Z,0
2016-11-23T02:15:21.092Z,0
2016-11-23T02:16:22.139Z,0
2016-11-23T02:17:23.128Z,0
2016-11-23T02:18:21.640Z,0
2016-11-23T02:19:21.996Z,0
2016-11-23T02:20:22.350Z,0
2016-11-23T02:21:20.924Z,0
2016-11-23T02:22:20.956Z,0
2016-11-23T02:23:21.621Z,0
2016-11-23T02:24:21.744Z,0
2016-11-23T02:25:20.608Z,0
2016-11-23T02:26:21.115Z,0
2016-11-23T02:27:22.586Z,0
2016-11-23T02:28:21.875Z,0
2016-11-23T02:29:21.948Z,0
2016-11-23T02:30:21.556Z,0
2016-11-23T02:31:21.799Z,0
2016-11-23T02:32:21.499Z,0
2016-11-23T02:33:22.675Z,0
2016-11-23T02:34:23.080Z,0
2016-11-23T02:35:22.416Z,0
2016-11-23T02:36:22.131Z,0
2016-11-23T02:37:22.020Z,0
2016-11-23T02:38:21.323Z,0
2016-11-23T02:39:21.843Z,0
2016-11-23T02:40:22.618Z,0
2016-11-23T02:41:22.376Z,0
2016-11-23T02:42:21.566Z,0
2016-11-23T02:43:22.351Z,0
2016-11-23T02:44:23.954Z,0
2016-11-23T02:45:22.777Z,0
2016-11-23T02:46:22.883Z,0
2016-11-23T02:47:22.759Z,0
2016-11-23T02:48:22.306Z,0
2016-11-23T02:49:21.722Z,0
2016-11-23T02:50:22.981Z,0
2016-11-23T02:51:23.038Z,0
2016-11-23T02:52:21.898Z,0
2016-11-23T02:53:22.683Z,0
2016-11-23T02:54:22.751Z,0
2016-11-23T02:55:22.680Z,0
2016-11-23T02:56:22.866Z,0
2016-11-23T02:57:21.771Z,0
2016-11-23T02:58:22.604Z,0
2016-11-23T02:59:21.127Z,0
2016-11-23T03:00:21.711Z,0
2016-11-23T03:01:22.685Z,0
2016-11-23T03:02:22.242Z,0
2016-11-23T03:03:24.808Z,0
2016-11-23T03:04:22.879Z,0
2016-11-23T03:05:22.845Z,0
2016-11-23T03:06:22.739Z,0
2016-11-23T03:07:22.532Z,0
2016-11-23T03:08:21.868Z,0
2016-11-23T03:09:22.840Z,0
2016-11-23T03:10:22.304Z,0
2016-11-23T03:11:22.571Z,0
2016-11-23T03:12:23.017Z,0
2016-11-23T03:13:23.141Z,0
2016-11-23T03:14:23.019Z,0
2016-11-23T03:15:22.434Z,0
2016-11-23T03:16:23.372Z,0
2016-11-23T03:17:22.411Z,0
2016-11-23T03:18:23.138Z,0
2016-11-23T03:19:22.881Z,0
2016-11-23T03:20:22.917Z,0
2016-11-23T03:21:22.914Z,0
2016-11-23T03:22:22.715Z,0
2016-11-23T03:23:22.895Z,0
2016-11-23T03:24:23.037Z,0
2016-11-23T03:25:23.349Z,0
2016-11-23T03:26:22.315Z,0
2016-11-23T03:27:22.280Z,0
2016-11-23T03:28:22.827Z,0
2016-11-23T03:29:23.113Z,0
2016-11-23T03:30:23.021Z,0
2016-11-23T03:31:22.445Z,0
2016-11-23T03:32:24.024Z,0
2016-11-23T03:33:23.540Z,0
2016-11-23T03:34:23.810Z,0
2016-11-23T03:35:23.120Z,0
2016-11-23T03:36:22.396Z,0
2016-11-23T03:37:22.607Z,0
2016-11-23T03:38:23.165Z,0
2016-11-23T03:39:23.084Z,0
2016-11-23T03:40:22.615Z,0
2016-11-23T03:41:23.392Z,0
2016-11-23T03:42:24.020Z,0
2016-11-23T03:43:23.560Z,0
2016-11-23T03:44:23.265Z,0
2016-11-23T03:45:22.289Z,0
2016-11-23T03:46:23.275Z,0
2016-11-23T03:47:22.291Z,0
2016-11-23T03:48:23.083Z,0
2016-11-23T03:49:23.475Z,0
2016-11-23T03:50:23.316Z,0
2016-11-23T03:51:26.438Z,0
2016-11-23T03:52:23.164Z,0
2016-11-23T03:53:23.458Z,0
2016-11-23T03:54:23.874Z,0
2016-11-23T03:55:22.549Z,0
2016-11-23T03:56:23.300Z,0
2016-11-23T03:57:23.063Z,0
2016-11-23T03:58:22.579Z,0
2016-11-23T03:59:22.967Z,0
2016-11-23T04:00:23.807Z,0
2016-11-23T04:01:24.576Z,0
2016-11-23T04:02:23.091Z,0
2016-11-23T04:03:23.759Z,0
2016-11-23T04:04:23.737Z,0
2016-11-23T04:05:22.975Z,0
2016-11-23T04:06:23.486Z,0
2016-11-23T04:07:23.452Z,0
2016-11-23T04:08:23.350Z,0
2016-11-23T04:09:22.833Z,0
2016-11-23T04:10:22.556Z,0
2016-11-23T04:11:23.378Z,0
2016-11-23T04:12:23.960Z,0
2016-11-23T04:13:22.987Z,0
2016-11-23T04:14:24.029Z,0
2016-11-23T04:15:24.224Z,0
2016-11-23T04:16:23.455Z,0
2016-11-23T04:17:25.148Z,0
2016-11-23T04:18:22.872Z,0
2016-11-23T04:19:25.461Z,0
2016-11-23T04:20:23.172Z,0
2016-11-23T04:21:23.314Z,0
2016-11-23T04:22:25.302Z,0
2016-11-23T04:23:23.504Z,0
2016-11-23T04:24:23.901Z,0
2016-11-23T04:25:24.235Z,0
2016-11-23T04:26:22.894Z,0
2016-11-23T04:27:23.631Z,0
2016-11-23T04:28:24.424Z,0
2016-11-23T04:29:24.214Z,0
2016-11-23T04:30:23.545Z,0
2016-11-23T04:31:22.859Z,0
2016-11-23T04:32:24.205Z,0
2016-11-23T04:33:23.903Z,0
2016-11-23T04:34:25.089Z,0
2016-11-23T04:35:23.675Z,0
2016-11-23T04:36:24.161Z,0
2016-11-23T04:37:23.068Z,0
2016-11-23T04:38:23.689Z,0
2016-11-23T04:39:24.272Z,0
2016-11-23T04:40:24.243Z,0
2016-11-23T04:41:23.971Z,0
2016-11-23T04:42:23.551Z,0
2016-11-23T04:43:24.280Z,0
2016-11-23T04:44:24.980Z,0
2016-11-23T04:45:23.581Z,0
2016-11-23T04:46:23.836Z,0
2016-11-23T04:47:24.473Z,0
2016-11-23T04:48:23.427Z,0
2016-11-23T04:49:24.058Z,0
2016-11-23T04:50:23.821Z,0
2016-11-23T04:51:25.146Z,0
2016-11-23T04:52:23.742Z,0
2016-11-23T04:53:23.613Z,0
2016-11-23T04:54:24.591Z,0
2016-11-23T04:55:25.050Z,0
2016-11-23T04:56:24.591Z,0
2016-11-23T04:57:23.586Z,0
2016-11-23T04:58:25.696Z,0
2016-11-23T04:59:24.640Z,0
2016-11-23T05:00:23.924Z,0
2016-11-23T05:01:24.206Z,0
2016-11-23T05:02:23.481Z,0
2016-11-23T05:03:24.268Z,0
2016-11-23T05:04:23.962Z,0
2016-11-23T05:05:24.038Z,0
2016-11-23T05:06:24.094Z,0
2016-11-23T05:07:24.063Z,0
2016-11-23T05:08:23.323Z,0
2016-11-23T05:09:24.231Z,0
2016-11-23T05:10:24.378Z,0
2016-11-23T05:11:23.721Z,0
2016-11-23T05:12:25.157Z,0
2016-11-23T05:13:24.796Z,0
2016-11-23T05:14:24.812Z,0
2016-11-23T05:15:23.741Z,0
2016-11-23T05:17:24.975Z,0
2016-11-23T05:18:26.748Z,0
2016-11-23T05:19:23.888Z,0
2016-11-23T05:20:25.136Z,0
2016-11-23T05:21:26.007Z,0
2016-11-23T05:22:24.858Z,0
2016-11-23T05:23:24.206Z,0
2016-11-23T05:24:25.732Z,0
2016-11-23T05:25:26.269Z,0
2016-11-23T05:26:25.875Z,0
2016-11-23T05:27:25.508Z,0
2016-11-23T05:28:26.411Z,0
2016-11-23T05:29:25.868Z,0
2016-11-23T05:30:26.302Z,0
2016-11-23T05:31:26.002Z,0
2016-11-23T05:32:26.286Z,0
2016-11-23T05:33:27.007Z,0
2016-11-23T05:34:25.470Z,0
2016-11-23T05:35:24.652Z,0
2016-11-23T05:36:26.364Z,0
2016-11-23T05:37:27.442Z,0
2016-11-23T05:38:25.253Z,0
2016-11-23T05:39:26.287Z,0
2016-11-23T05:40:27.238Z,0
2016-11-23T05:41:25.449Z,0
2016-11-23T05:42:26.103Z,0
2016-11-23T05:43:26.269Z,0
2016-11-23T05:44:25.716Z,0
2016-11-23T05:45:25.260Z,0
2016-11-23T05:46:26.143Z,0
2016-11-23T05:47:26.175Z,0
2016-11-23T05:48:28.337Z,0
2016-11-23T05:49:24.984Z,0
2016-11-23T05:50:26.165Z,0
2016-11-23T05:51:26.626Z,0
2016-11-23T05:52:26.885Z,0
2016-11-23T05:53:24.982Z,0
2016-11-23T05:54:24.640Z,0
2016-11-23T05:55:25.851Z,0
2016-11-23T05:56:26.240Z,0
2016-11-23T05:57:27.152Z,0
2016-11-23T05:58:25.883Z,0
2016-11-23T05:59:26.979Z,0
2016-11-23T06:00:25.724Z,0
2016-11-23T06:01:25.679Z,0
2016-11-23T06:02:26.374Z,0
2016-11-23T06:03:26.592Z,0
2016-11-23T06:04:25.464Z,0
2016-11-23T06:05:26.023Z,0
2016-11-23T06:06:26.175Z,0
2016-11-23T06:07:25.369Z,0
2016-11-23T06:08:27.190Z,0
2016-11-23T06:09:25.602Z,0
2016-11-23T06:10:25.121Z,0
2016-11-23T06:11:25.752Z,0
2016-11-23T06:12:25.606Z,0
2016-11-23T06:13:28.265Z,0
2016-11-23T06:14:25.738Z,0
2016-11-23T06:15:27.002Z,0
2016-11-23T06:16:26.877Z,0
2016-11-23T06:17:25.727Z,0
2016-11-23T06:18:26.871Z,0
2016-11-23T06:19:26.689Z,0
2016-11-23T06:20:30.048Z,0
2016-11-23T06:21:25.846Z,0
2016-11-23T06:22:27.015Z,0
2016-11-23T06:23:26.985Z,0
2016-11-23T06:24:26.426Z,0
2016-11-23T06:25:27.726Z,0
2016-11-23T06:26:25.485Z,0
2016-11-23T06:27:28.552Z,0
2016-11-23T06:28:26.862Z,0
2016-11-23T06:29:26.811Z,0
2016-11-23T06:30:27.419Z,0
2016-11-23T06:31:26.843Z,0
2016-11-23T06:32:25.976Z,0
2016-11-23T06:33:25.633Z,0
2016-11-23T06:34:26.936Z,0
2016-11-23T06:35:26.803Z,0
2016-11-23T06:36:25.710Z,0
2016-11-23T06:37:26.442Z,0
2016-11-23T06:38:28.349Z,0
2016-11-23T06:39:28.339Z,0
2016-11-23T06:40:26.345Z,0
2016-11-23T06:41:26.778Z,0
2016-11-23T06:42:27.377Z,0
2016-11-23T06:43:25.900Z,0
2016-11-23T06:44:26.299Z,0
2016-11-23T06:45:25.565Z,5
2016-11-23T06:46:28.575Z,5
2016-11-23T06:47:26.125Z,5
2016-11-23T06:48:26.386Z,5
2016-11-23T06:49:27.857Z,5
2016-11-23T06:50:26.351Z,5
2016-11-23T06:51:26.331Z,5
2016-11-23T06:52:26.353Z,10
2016-11-23T06:53:26.746Z,10
2016-11-23T06:54:26.167Z,10
2016-11-23T06:55:26.290Z,10
2016-11-23T06:56:26.800Z,10
2016-11-23T06:57:26.487Z,10
2016-11-23T06:58:26.483Z,15
2016-11-23T06:59:26.673Z,15
2016-11-23T07:00:26.269Z,15
2016-11-23T07:01:28.996Z,15
2016-11-23T07:02:26.063Z,15
2016-11-23T07:03:26.629Z,20
2016-11-23T07:04:27.698Z,20
2016-11-23T07:05:26.370Z,20
2016-11-23T07:06:26.356Z,25
2016-11-23T07:07:26.524Z,25
2016-11-23T07:08:29.109Z,25
2016-11-23T07:09:27.959Z,30
2016-11-23T07:10:26.699Z,30
2016-11-23T07:11:26.152Z,30
2016-11-23T07:12:27.435Z,35
2016-11-23T07:13:26.034Z,35
2016-11-23T07:14:26.204Z,40
2016-11-23T07:15:27.328Z,40
2016-11-23T07:16:25.906Z,40
2016-11-23T07:17:26.079Z,45
2016-11-23T07:18:28.202Z,45
2016-11-23T07:19:26.095Z,50
2016-11-23T07:20:28.060Z,50
2016-11-23T07:21:26.641Z,55
2016-11-23T07:22:26.802Z,55
2016-11-23T07:23:27.435Z,55
2016-11-23T07:24:26.383Z,60
2016-11-23T07:25:26.353Z,60
2016-11-23T07:26:27.024Z,60
2016-11-23T07:27:27.299Z,65
2016-11-23T07:28:26.381Z,65
2016-11-23T07:29:26.325Z,65
2016-11-23T07:30:26.787Z,70
2016-11-23T07:31:27.318Z,70
2016-11-23T07:32:26.788Z,70
2016-11-23T07:33:26.035Z,70
2016-11-23T07:34:27.477Z,75
2016-11-23T07:35:28.080Z,75
2016-11-23T07:36:28.437Z,80
2016-11-23T07:37:27.743Z,80
2016-11-23T07:38:27.425Z,80
2016-11-23T07:39:27.377Z,80
2016-11-23T07:40:26.454Z,85
2016-11-23T07:41:26.871Z,90
2016-11-23T07:42:26.571Z,90
2016-11-23T07:43:28.888Z,95
2016-11-23T07:44:26.319Z,100
2016-11-23T07:45:28.016Z,100
2016-11-23T07:46:27.060Z,100
2016-11-23T07:47:26.028Z,110
2016-11-23T07:48:26.919Z,110
2016-11-23T07:49:27.254Z,115
2016-11-23T07:50:28.007Z,115
2016-11-23T07:51:27.417Z,115
2016-11-23T07:52:25.918Z,120
2016-11-23T07:53:26.960Z,120
2016-11-23T07:54:28.483Z,125
2016-11-23T07:55:27.536Z,125
2016-11-23T07:56:26.447Z,130
2016-11-23T07:57:27.427Z,135
2016-11-23T07:58:26.836Z,140
2016-11-23T07:59:27.218Z,140
2016-11-23T08:00:27.019Z,140
2016-11-23T08:01:28.123Z,145
2016-11-23T08:02:28.571Z,150
2016-11-23T08:03:27.110Z,155
2016-11-23T08:04:27.483Z,160
2016-11-23T08:05:27.063Z,155
2016-11-23T08:06:26.947Z,160
2016-11-23T08:07:26.523Z,165
2016-11-23T08:08:26.910Z,165
2016-11-23T08:09:26.748Z,165
2016-11-23T08:10:28.290Z,160
2016-11-23T08:11:27.291Z,160
2016-11-23T08:12:27.559Z,170
2016-11-23T08:13:27.684Z,170
2016-11-23T08:14:26.869Z,165
2016-11-23T08:15:27.264Z,175
2016-11-23T08:16:27.391Z,185
2016-11-23T08:17:27.477Z,190
2016-11-23T08:18:26.744Z,190
2016-11-23T08:19:26.838Z,195
2016-11-23T08:20:27.489Z,195
2016-11-23T08:21:26.902Z,200
2016-11-23T08:22:26.934Z,205
2016-11-23T08:23:26.897Z,215
2016-11-23T08:24:27.829Z,230
2016-11-23T08:25:27.142Z,230
2016-11-23T08:26:27.058Z,225
2016-11-23T08:27:27.152Z,240
2016-11-23T08:28:27.711Z,245
2016-11-23T08:29:28.704Z,250
2016-11-23T08:30:28.035Z,250
2016-11-23T08:31:27.777Z,255
2016-11-23T08:32:29.282Z,260
2016-11-23T08:33:27.423Z,260
2016-11-23T08:34:27.569Z,265
2016-11-23T08:35:28.583Z,265
2016-11-23T08:36:29.202Z,265
2016-11-23T08:37:27.040Z,270
2016-11-23T08:38:28.031Z,270
2016-11-23T08:39:28.109Z,270
2016-11-23T08:40:27.538Z,270
2016-11-23T08:41:27.980Z,270
2016-11-23T08:42:28.565Z,270
2016-11-23T08:43:28.139Z,270
2016-11-23T08:44:27.026Z,275
2016-11-23T08:45:27.127Z,270
2016-11-23T08:46:28.460Z,270
2016-11-23T08:47:28.993Z,270
2016-11-23T08:48:27.335Z,270
2016-11-23T08:49:27.510Z,275
2016-11-23T08:50:27.568Z,275
2016-11-23T08:51:27.199Z,280
2016-11-23T08:52:29.603Z,280
2016-11-23T08:53:27.690Z,280
2016-11-23T08:54:28.547Z,285
2016-11-23T08:55:27.228Z,285
2016-11-23T08:56:27.036Z,285
2016-11-23T08:57:28.356Z,285
2016-11-23T08:58:29.418Z,285
2016-11-23T08:59:29.142Z,290
2016-11-23T09:00:27.951Z,290
2016-11-23T09:01:28.517Z,290
2016-11-23T09:02:29.014Z,295
2016-11-23T09:03:29.464Z,295
2016-11-23T09:04:27.347Z,295
2016-11-23T09:05:28.840Z,295
2016-11-23T09:06:29.374Z,305
2016-11-23T09:07:29.295Z,305
2016-11-23T09:08:27.799Z,315
2016-11-23T09:09:28.988Z,320
2016-11-23T09:10:29.659Z,320
2016-11-23T09:11:27.759Z,320
2016-11-23T09:12:28.177Z,325
2016-11-23T09:13:28.794Z,325
2016-11-23T09:14:29.413Z,320
2016-11-23T09:15:28.338Z,320
2016-11-23T09:16:27.927Z,325
2016-11-23T09:17:27.905Z,330
2016-11-23T09:18:29.729Z,335
2016-11-23T09:19:28.763Z,335
2016-11-23T09:20:28.707Z,340
2016-11-23T09:21:29.260Z,345
2016-11-23T09:22:29.916Z,345
2016-11-23T09:23:28.264Z,345
2016-11-23T09:24:28.619Z,350
2016-11-23T09:25:29.213Z,350
2016-11-23T09:26:29.304Z,350
2016-11-23T09:27:28.089Z,350
2016-11-23T09:28:29.047Z,350
2016-11-23T09:29:28.884Z,350
2016-11-23T09:30:29.457Z,350
2016-11-23T09:31:27.397Z,345
2016-11-23T09:32:29.034Z,345
2016-11-23T09:33:28.144Z,340
2016-11-23T09:34:27.722Z,340
2016-11-23T09:35:29.799Z,345
2016-11-23T09:36:27.959Z,345
2016-11-23T09:37:29.949Z,355
2016-11-23T09:38:28.158Z,355
2016-11-23T09:39:28.898Z,365
2016-11-23T09:40:28.008Z,370
2016-11-23T09:41:29.381Z,375
2016-11-23T09:42:29.117Z,385
2016-11-23T09:43:28.864Z,385
2016-11-23T09:44:29.504Z,390
2016-11-23T09:45:29.003Z,390
2016-11-23T09:46:28.667Z,400
2016-11-23T09:47:28.937Z,400
2016-11-23T09:48:28.830Z,400
2016-11-23T09:49:29.379Z,405
2016-11-23T09:50:29.253Z,405
2016-11-23T09:51:28.859Z,410
2016-11-23T09:52:29.274Z,415
2016-11-23T09:53:28.576Z,415
2016-11-23T09:54:28.765Z,420
2016-11-23T09:55:29.549Z,425
2016-11-23T09:56:30.354Z,430
2016-11-23T09:57:28.395Z,430
2016-11-23T09:58:29.119Z,440
2016-11-23T09:59:29.723Z,445
2016-11-23T10:00:29.463Z,455
2016-11-23T10:01:28.652Z,460
2016-11-23T10:02:29.544Z,460
2016-11-23T10:03:30.302Z,465
2016-11-23T10:04:29.595Z,475
2016-11-23T10:05:28.564Z,475
2016-11-23T10:06:29.243Z,475
2016-11-23T10:07:27.919Z,485
2016-11-23T10:08:29.163Z,485
2016-11-23T10:09:28.816Z,480
2016-11-23T10:10:29.383Z,480
2016-11-23T10:11:30.392Z,485
2016-11-23T10:12:30.363Z,490
2016-11-23T10:13:28.696Z,490
2016-11-23T10:14:29.655Z,495
2016-11-23T10:15:29.046Z,500
2016-11-23T10:16:31.760Z,500
2016-11-23T10:17:28.580Z,500
2016-11-23T10:18:28.978Z,495
2016-11-23T10:19:30.989Z,495
2016-11-23T10:20:29.088Z,500
2016-11-23T10:21:29.704Z,500
2016-11-23T10:22:30.320Z,500
2016-11-23T10:23:29.064Z,500
2016-11-23T10:24:29.474Z,490
2016-11-23T10:25:28.996Z,490
2016-11-23T10:26:29.793Z,495
2016-11-23T10:27:28.148Z,485
2016-11-23T10:28:29.221Z,480
2016-11-23T10:29:29.560Z,480
2016-11-23T10:30:30.150Z,470
2016-11-23T10:31:31.044Z,455
2016-11-23T10:32:29.139Z,445
2016-11-23T10:33:29.017Z,430
2016-11-23T10:34:31.421Z,420
2016-11-23T10:35:29.179Z,410
2016-11-23T10:36:29.141Z,400
2016-11-23T10:37:30.045Z,395
2016-11-23T10:38:30.301Z,390
2016-11-23T10:39:30.146Z,385
2016-11-23T10:40:29.195Z,385
2016-11-23T10:41:28.740Z,385
2016-11-23T10:42:29.118Z,390
2016-11-23T10:43:28.907Z,390
2016-11-23T10:44:29.427Z,390
2016-11-23T10:45:30.755Z,400
2016-11-23T10:46:30.379Z,405
2016-11-23T10:47:30.274Z,410
2016-11-23T10:48:29.923Z,415
2016-11-23T10:49:30.916Z,420
2016-11-23T10:50:32.220Z,425
2016-11-23T10:51:29.351Z,425
2016-11-23T10:52:30.290Z,430
2016-11-23T10:53:30.979Z,430
2016-11-23T10:54:29.715Z,430
2016-11-23T10:55:29.445Z,420
2016-11-23T10:56:29.339Z,415
2016-11-23T10:57:30.961Z,415
2016-11-23T10:58:28.958Z,405
2016-11-23T10:59:30.787Z,395
2016-11-23T11:00:29.678Z,395
2016-11-23T11:01:29.058Z,395
2016-11-23T11:02:30.050Z,395
2016-11-23T11:03:30.261Z,400
2016-11-23T11:04:31.247Z,395
2016-11-23T11:05:30.000Z,395
2016-11-23T11:06:29.697Z,400
2016-11-23T11:07:29.361Z,400
2016-11-23T11:08:30.050Z,400
2016-11-23T11:09:30.995Z,405
2016-11-23T11:10:29.923Z,400
2016-11-23T11:11:31.019Z,400
2016-11-23T11:12:31.740Z,405
2016-11-23T11:13:30.186Z,405
2016-11-23T11:14:30.258Z,410
2016-11-23T11:15:30.271Z,420
2016-11-23T11:16:30.948Z,425
2016-11-23T11:17:30.160Z,425
2016-11-23T11:18:30.307Z,435
2016-11-23T11:19:29.672Z,450
2016-11-23T11:20:31.161Z,465
2016-11-23T11:21:29.876Z,470
2016-11-23T11:22:30.489Z,475
2016-11-23T11:23:32.011Z,485
2016-11-23T11:24:31.195Z,485
2016-11-23T11:25:30.129Z,485
2016-11-23T11:26:30.455Z,480
2016-11-23T11:27:31.033Z,470
2016-11-23T11:28:32.049Z,470
2016-11-23T11:29:30.567Z,460
2016-11-23T11:30:29.942Z,455
2016-11-23T11:31:31.464Z,455
2016-11-23T11:32:31.511Z,450
2016-11-23T11:33:30.951Z,445
2016-11-23T11:34:31.628Z,435
2016-11-23T11:35:30.431Z,430
2016-11-23T11:36:31.174Z,420
2016-11-23T11:37:31.335Z,410
2016-11-23T11:38:31.128Z,400
2016-11-23T11:39:31.237Z,390
2016-11-23T11:40:30.157Z,380
2016-11-23T11:41:31.081Z,375
2016-11-23T11:42:31.356Z,380
2016-11-23T11:43:31.917Z,380
2016-11-23T11:44:31.697Z,375
2016-11-23T11:45:31.281Z,380
2016-11-23T11:46:31.515Z,385
2016-11-23T11:47:31.324Z,385
2016-11-23T11:48:31.537Z,385
2016-11-23T11:49:30.331Z,385
2016-11-23T11:50:31.790Z,380
2016-11-23T11:51:31.592Z,375
2016-11-23T11:52:30.554Z,370
2016-11-23T11:53:31.454Z,375
2016-11-23T11:54:32.987Z,370
2016-11-23T11:55:32.170Z,375
2016-11-23T11:56:30.492Z,370
2016-11-23T11:57:31.519Z,365
2016-11-23T11:58:32.665Z,360
2016-11-23T11:59:33.386Z,360
2016-11-23T12:00:32.194Z,350
2016-11-23T12:01:31.467Z,345
2016-11-23T12:02:31.146Z,345
2016-11-23T12:03:31.625Z,345
2016-11-23T12:04:31.241Z,330
2016-11-23T12:05:32.311Z,320
2016-11-23T12:06:32.724Z,325
2016-11-23T12:07:31.138Z,325
2016-11-23T12:08:31.521Z,325
2016-11-23T12:09:32.525Z,315
2016-11-23T12:10:32.714Z,315
2016-11-23T12:11:33.088Z,325
2016-11-23T12:12:31.741Z,340
2016-11-23T12:13:31.295Z,355
2016-11-23T12:14:30.891Z,360
2016-11-23T12:15:31.195Z,365
2016-11-23T12:16:31.796Z,365
2016-11-23T12:17:32.612Z,365
2016-11-23T12:18:30.606Z,360
2016-11-23T12:19:31.541Z,360
2016-11-23T12:20:32.025Z,360
2016-11-23T12:21:33.007Z,350
2016-11-23T12:22:32.259Z,340
2016-11-23T12:23:32.207Z,335
2016-11-23T12:24:31.393Z,335
2016-11-23T12:25:32.343Z,335
2016-11-23T12:26:33.771Z,335
2016-11-23T12:27:32.478Z,335
2016-11-23T12:28:32.347Z,335
2016-11-23T12:29:32.167Z,340
2016-11-23T12:30:34.414Z,340
2016-11-23T12:31:31.677Z,340
2016-11-23T12:32:31.139Z,340
2016-11-23T12:33:32.351Z,340
2016-11-23T12:34:31.880Z,335
2016-11-23T12:35:32.627Z,325
2016-11-23T12:36:31.865Z,320
2016-11-23T12:37:32.180Z,320
2016-11-23T12:38:31.760Z,320
2016-11-23T12:39:31.700Z,320
2016-11-23T12:40:31.801Z,320
2016-11-23T12:41:34.072Z,325
2016-11-23T12:42:32.028Z,320
2016-11-23T12:43:30.940Z,325
2016-11-23T12:44:33.986Z,325
2016-11-23T12:45:32.797Z,325
2016-11-23T12:46:32.133Z,325
2016-11-23T12:47:33.022Z,325
2016-11-23T12:48:31.060Z,325
2016-11-23T12:49:31.850Z,320
2016-11-23T12:50:31.657Z,320
2016-11-23T12:51:32.021Z,315
2016-11-23T12:52:31.687Z,310
2016-11-23T12:53:32.445Z,310
2016-11-23T12:54:32.124Z,310
2016-11-23T12:55:31.942Z,315
2016-11-23T12:56:34.093Z,310
2016-11-23T12:57:34.404Z,310
2016-11-23T12:58:32.482Z,310
2016-11-23T12:59:33.438Z,315
2016-11-23T13:00:31.640Z,315
2016-11-23T13:01:34.013Z,320
2016-11-23T13:02:32.640Z,325
2016-11-23T13:03:33.145Z,320
2016-11-23T13:04:32.597Z,320
2016-11-23T13:05:32.284Z,315
2016-11-23T13:06:31.634Z,310
2016-11-23T13:07:32.771Z,300
2016-11-23T13:08:34.280Z,290
2016-11-23T13:09:32.502Z,290
2016-11-23T13:10:32.096Z,285
2016-11-23T13:11:33.677Z,280
2016-11-23T13:12:34.518Z,280
2016-11-23T13:13:33.403Z,280
2016-11-23T13:14:33.048Z,275
2016-11-23T13:15:31.475Z,275
2016-11-23T13:16:32.086Z,275
2016-11-23T13:17:32.743Z,275
2016-11-23T13:18:33.103Z,275
2016-11-23T13:19:33.870Z,270
2016-11-23T13:20:32.968Z,270
2016-11-23T13:21:33.009Z,270
2016-11-23T13:22:34.062Z,265
2016-11-23T13:23:33.428Z,265
2016-11-23T13:24:32.424Z,260
2016-11-23T13:25:33.363Z,260
2016-11-23T13:26:32.877Z,255
2016-11-23T13:27:34.220Z,250
2016-11-23T13:28:32.908Z,250
2016-11-23T13:29:33.414Z,250
2016-11-23T13:30:33.850Z,240
2016-11-23T13:31:34.248Z,235
2016-11-23T13:32:33.353Z,240
2016-11-23T13:33:33.672Z,240
2016-11-23T13:34:32.746Z,240
2016-11-23T13:35:35.106Z,235
2016-11-23T13:36:33.245Z,235
2016-11-23T13:37:32.387Z,235
2016-11-23T13:38:34.271Z,235
2016-11-23T13:39:34.275Z,235
2016-11-23T13:40:32.634Z,235
2016-11-23T13:41:34.110Z,235
2016-11-23T13:42:34.915Z,235
2016-11-23T13:43:33.739Z,235
2016-11-23T13:44:33.745Z,235
2016-11-23T13:45:34.478Z,230
2016-11-23T13:46:35.265Z,230
2016-11-23T13:47:32.737Z,225
2016-11-23T13:48:33.934Z,225
2016-11-23T13:49:34.428Z,220
2016-11-23T13:50:35.608Z,215
2016-11-23T13:51:33.187Z,210
2016-11-23T13:52:34.021Z,210
2016-11-23T13:53:33.369Z,205
2016-11-23T13:54:34.919Z,200
2016-11-23T13:55:33.710Z,200
2016-11-23T13:56:34.199Z,195
2016-11-23T13:57:34.990Z,190
2016-11-23T13:58:35.811Z,190
2016-11-23T13:59:33.624Z,185
2016-11-23T14:00:34.439Z,185
2016-11-23T14:01:33.548Z,180
2016-11-23T14:02:36.006Z,180
2016-11-23T14:03:33.970Z,175
2016-11-23T14:04:33.515Z,175
2016-11-23T14:05:34.768Z,170
2016-11-23T14:06:35.197Z,165
2016-11-23T14:07:33.509Z,165
2016-11-23T14:08:35.331Z,160
2016-11-23T14:09:35.165Z,160
2016-11-23T14:10:33.490Z,155
2016-11-23T14:11:34.305Z,155
2016-11-23T14:12:34.774Z,150
2016-11-23T14:13:34.249Z,150
2016-11-23T14:14:34.816Z,145
2016-11-23T14:15:34.002Z,145
2016-11-23T14:16:35.259Z,140
2016-11-23T14:17:35.457Z,140